Airfield :







YOU CAN JOIN US ON...

 
LOGIN :

Register | Disclaimer

   EN    FR    IT 

 









Legend :    VFR   Marginal VFR   IFR   Intensive IFR   Very Intensive IFR
Visi :
Ceiling :
>= 8 km
>= 3000ft
5 to 8 km
1000 to 3000 ft
1500m to 5 km
500 to 1000 ft
800 to 1500m
200 to 500 ft
< 800m
< 200 ft
Symbols :   Thunderstorms  Fog  Heavy snow  Heavy precipitations  Wind > 20 kt






- Airport Elevation : 988 ft


KFVE - Northern Aroostook Regional

CURRENT METAR :
  • 281853Z AUTO 19009KT 10SM SCT050 SCT070 OVC090 M01/M07 A2992 RMK AO2 SLP144 T10111067

EXPIRED METARs :
  • 281753Z AUTO 17008KT 10SM SCT050 OVC095 M02/M07 A2994 RMK AO2 SLP152 T10171072 11017 21044 58030
  • 281734Z AUTO 19009KT 10SM FEW023 OVC050 M02/M07 A2996 RMK AO2 T10171072
  • 281708Z AUTO 17011KT 10SM BKN023 OVC060 M02/M07 A2997 RMK AO2 T10221072
  • 281653Z AUTO 16009KT 10SM SCT022 OVC060 M02/M08 A2998 RMK AO2 SLP165 T10221078

TAF KFVE
Valid from the 28 at 18:00 until the 29 at 18:00 UTC


281735Z 2818/2918 18007KT P6SM SCT025 BKN050
TEMPO 2818/2820 BKN025
FM282200 18006KT P6SM VCSH OVC025
FM290200 21006KT 5SM -SN OVC015
FM290500 24006KT P6SM SCT015
FM291600 30010G20KT P6SM SCT070
KZBW FIR / North America



MET'MAP, your aeronautical weather chart ! - Copyright ORBIFLY December 2007 - Disclaimer

ORBIFLY MET'MAP TEAM :

Programming & Development : Alexandra Zaïnal
Concept & original design : Baudouin d'Aumeries
Assistance for programming : Marc-Olivier Méhu
Technical & hardware support : Manuel Goepfert

Contact : metmap@orbifly.com




SOURCES & CREDITS :

   NOAA